Time;durP1;ratioP1;P1;durP2;ratioP2;P2;SDS_P1;SDS_P2;PMS_P1;PMS_P2;Temp;Humidity;BMP_temperature;BMP_pressure;BME280_temperature;BME280_humidity;BME280_pressure;Samples;Min_cycle;Max_cycle;Signal;HPM_P1;HPM_P2
2023/08/06 00:02:16;;;;;;;1.50;1.13;;;;;;;25.81;100.00;98041.78;5051943;28;20211;-68
2023/08/06 00:04:42;;;;;;;2.13;0.77;;;;;;;25.84;100.00;98046.69;5052449;28;20196;-67
2023/08/06 00:07:11;;;;;;;1.93;0.77;;;;;;;25.89;100.00;98038.25;5052385;28;20204;-68
2023/08/06 00:09:37;;;;;;;0.90;0.90;;;;;;;25.88;100.00;98034.03;5050236;28;20208;-68
2023/08/06 00:12:05;;;;;;;0.83;0.83;;;;;;;25.93;100.00;98040.38;5052182;28;20270;-68
2023/08/06 00:14:32;;;;;;;0.70;0.70;;;;;;;25.86;100.00;98022.88;5051024;28;20726;-68
2023/08/06 00:16:59;;;;;;;0.87;0.87;;;;;;;25.89;100.00;98025.97;5052245;28;20588;-68
2023/08/06 00:19:26;;;;;;;0.90;0.90;;;;;;;25.84;100.00;98020.44;5051751;28;20576;-69
2023/08/06 00:21:52;;;;;;;0.90;0.90;;;;;;;25.69;100.00;98024.78;5051699;28;20611;-68
2023/08/06 00:24:20;;;;;;;0.80;0.80;;;;;;;25.65;100.00;98017.44;5051754;28;20189;-67
2023/08/06 00:26:47;;;;;;;1.03;0.97;;;;;;;25.56;100.00;98014.88;5051978;28;20660;-68
2023/08/06 00:29:14;;;;;;;1.00;1.00;;;;;;;25.64;100.00;98011.38;5051679;28;20212;-68
2023/08/06 00:31:41;;;;;;;0.90;0.90;;;;;;;25.56;100.00;98011.41;5052003;28;20208;-70
2023/08/06 00:34:07;;;;;;;1.00;1.00;;;;;;;25.56;100.00;98032.41;5051436;28;20220;-69
2023/08/06 00:36:34;;;;;;;0.67;0.67;;;;;;;25.57;100.00;98040.13;5051449;28;20624;-69
2023/08/06 00:39:01;;;;;;;0.77;0.77;;;;;;;25.60;100.00;98038.97;5051580;28;20207;-68
2023/08/06 00:41:29;;;;;;;0.80;0.80;;;;;;;25.66;100.00;98035.63;5051302;28;20197;-68
2023/08/06 00:43:56;;;;;;;1.03;1.00;;;;;;;25.59;100.00;98018.94;5051466;28;20235;-68
2023/08/06 00:46:23;;;;;;;0.70;0.70;;;;;;;25.62;100.00;98005.50;5051345;28;20201;-68
2023/08/06 00:48:51;;;;;;;0.63;0.63;;;;;;;25.63;100.00;98016.78;5051087;28;20197;-68
2023/08/06 00:51:17;;;;;;;0.97;0.97;;;;;;;25.54;100.00;98008.16;5051415;28;20200;-69
2023/08/06 00:53:44;;;;;;;0.67;0.67;;;;;;;25.45;100.00;97989.00;5051142;28;20227;-68
2023/08/06 00:56:11;;;;;;;0.60;0.60;;;;;;;25.56;100.00;98000.94;5051227;28;20274;-70
2023/08/06 00:58:40;;;;;;;1.03;0.90;;;;;;;25.54;100.00;98001.13;5051238;28;20193;-68
2023/08/06 01:01:07;;;;;;;0.77;0.77;;;;;;;25.52;100.00;97997.03;5051045;28;20201;-68
2023/08/06 01:03:34;;;;;;;0.77;0.77;;;;;;;25.25;100.00;97981.75;5051252;28;20200;-69
2023/08/06 01:06:01;;;;;;;1.10;1.10;;;;;;;25.36;100.00;97989.25;5051020;28;20200;-68
2023/08/06 01:08:34;;;;;;;1.33;0.93;;;;;;;25.46;100.00;97998.50;5050728;28;20201;-68
2023/08/06 01:11:12;;;;;;;2.33;0.70;;;;;;;25.52;100.00;97994.41;5050760;28;20193;-69
2023/08/06 01:13:43;;;;;;;1.20;1.10;;;;;;;25.49;100.00;97989.47;5047793;28;20683;-67
2023/08/06 01:16:12;;;;;;;3.10;0.97;;;;;;;25.44;100.00;97992.63;5050527;28;20228;-68
2023/08/06 01:18:39;;;;;;;1.00;1.00;;;;;;;25.46;100.00;97995.09;5051149;28;20197;-69
2023/08/06 01:21:07;;;;;;;0.70;0.70;;;;;;;25.39;100.00;97994.97;5050266;28;20291;-69
2023/08/06 01:23:35;;;;;;;0.80;0.80;;;;;;;25.35;100.00;97998.09;5050824;28;20639;-68
2023/08/06 01:26:10;;;;;;;0.83;0.83;;;;;;;25.30;100.00;97995.19;5050943;28;20232;-68
2023/08/06 01:28:44;;;;;;;1.00;0.90;;;;;;;25.36;100.00;98004.97;5050752;28;20203;-68
2023/08/06 01:31:19;;;;;;;0.60;0.60;;;;;;;25.44;100.00;98012.78;5050136;28;20683;-68
2023/08/06 01:33:48;;;;;;;2.33;1.10;;;;;;;25.52;100.00;98005.72;5047461;28;20215;-68
2023/08/06 01:36:17;;;;;;;0.93;0.93;;;;;;;25.51;100.00;97993.59;5050522;28;20641;-68
2023/08/06 01:38:44;;;;;;;1.10;1.10;;;;;;;25.55;100.00;97989.63;5050749;28;20485;-68
2023/08/06 01:41:11;;;;;;;2.00;0.83;;;;;;;25.56;100.00;97974.69;5050116;28;20197;-68
2023/08/06 01:43:38;;;;;;;0.80;0.80;;;;;;;25.55;100.00;97952.06;5050741;28;20192;-68
2023/08/06 01:46:05;;;;;;;0.70;0.70;;;;;;;25.48;100.00;97935.38;5050443;28;20212;-68
2023/08/06 01:48:31;;;;;;;1.47;1.00;;;;;;;25.39;100.00;97936.41;5050157;28;20626;-68
2023/08/06 01:50:58;;;;;;;0.87;0.87;;;;;;;25.33;100.00;97942.38;5050493;28;20193;-69
2023/08/06 01:53:26;;;;;;;0.70;0.70;;;;;;;25.35;100.00;97929.88;5050074;28;20278;-68
2023/08/06 01:55:53;;;;;;;0.53;0.53;;;;;;;25.30;100.00;97958.47;5050782;28;20203;-68
2023/08/06 01:58:20;;;;;;;1.00;1.00;;;;;;;25.34;100.00;97970.22;5049837;28;20204;-68
2023/08/06 02:00:46;;;;;;;0.87;0.87;;;;;;;25.35;100.00;97979.72;5050283;28;20201;-68
2023/08/06 02:03:13;;;;;;;1.30;1.20;;;;;;;25.43;100.00;97983.09;5049811;28;20212;-67
2023/08/06 02:05:40;;;;;;;0.83;0.83;;;;;;;25.51;100.00;97992.78;5050345;28;20266;-68
2023/08/06 02:08:07;;;;;;;0.90;0.90;;;;;;;25.58;100.00;97998.97;5049778;28;20200;-68
2023/08/06 02:10:35;;;;;;;0.60;0.60;;;;;;;25.57;100.00;97992.88;5049905;28;20209;-68
2023/08/06 02:13:02;;;;;;;0.53;0.53;;;;;;;25.53;100.00;97975.03;5050176;28;20208;-69
2023/08/06 02:15:29;;;;;;;1.03;0.97;;;;;;;25.49;100.00;97968.50;5049883;28;20757;-68
2023/08/06 02:17:56;;;;;;;1.00;1.00;;;;;;;25.53;100.00;97985.53;5050165;28;20660;-68
2023/08/06 02:20:22;;;;;;;1.00;1.00;;;;;;;25.47;100.00;97987.03;5049544;28;20196;-69
2023/08/06 02:22:49;;;;;;;0.77;0.77;;;;;;;25.49;100.00;97973.75;5049737;28;20600;-68
2023/08/06 02:25:16;;;;;;;1.03;0.93;;;;;;;25.46;100.00;97964.38;5049790;28;20199;-68
2023/08/06 02:27:44;;;;;;;0.77;0.77;;;;;;;25.37;100.00;97964.63;5048619;28;20707;-68
2023/08/06 02:30:11;;;;;;;1.07;1.07;;;;;;;25.46;100.00;97974.09;5049629;28;20201;-67
2023/08/06 02:32:38;;;;;;;3.57;1.00;;;;;;;25.50;100.00;97964.88;5049872;28;20271;-68
2023/08/06 02:35:05;;;;;;;0.80;0.80;;;;;;;25.42;100.00;97976.25;5053336;28;20592;-68
2023/08/06 02:37:34;;;;;;;0.80;0.80;;;;;;;25.51;100.00;97971.78;5053166;28;20584;-68
2023/08/06 02:40:02;;;;;;;0.80;0.80;;;;;;;25.47;100.00;97965.22;5054250;28;20201;-69
2023/08/06 02:42:28;;;;;;;0.87;0.87;;;;;;;25.42;100.00;97957.06;5053251;28;20200;-68
2023/08/06 02:44:56;;;;;;;1.43;0.90;;;;;;;25.32;100.00;97956.47;5053743;28;20200;-68
2023/08/06 02:47:23;;;;;;;1.17;1.17;;;;;;;25.22;100.00;97956.69;5053619;28;20215;-68
2023/08/06 02:49:50;;;;;;;1.10;1.10;;;;;;;25.26;100.00;97957.16;5053644;28;20250;-69
2023/08/06 02:52:17;;;;;;;0.70;0.70;;;;;;;25.11;100.00;97957.06;5053573;28;20630;-69
2023/08/06 02:54:44;;;;;;;0.80;0.80;;;;;;;25.15;100.00;97955.75;5053385;28;20219;-68
2023/08/06 02:57:11;;;;;;;2.87;0.80;;;;;;;25.06;100.00;97951.53;5053386;28;20204;-70
2023/08/06 02:59:37;;;;;;;1.33;0.97;;;;;;;25.11;100.00;97962.31;5053663;28;20193;-68
2023/08/06 03:02:06;;;;;;;1.07;0.97;;;;;;;25.11;100.00;97954.44;5053573;28;20687;-68
2023/08/06 03:04:33;;;;;;;1.30;1.20;;;;;;;25.14;100.00;97958.56;5051363;28;20200;-69
2023/08/06 03:06:59;;;;;;;1.00;1.00;;;;;;;25.10;100.00;97959.88;5052103;28;20204;-68
2023/08/06 03:09:26;;;;;;;0.83;0.83;;;;;;;25.16;100.00;97961.81;5053239;28;20209;-67
2023/08/06 03:11:53;;;;;;;0.70;0.70;;;;;;;25.16;100.00;97956.56;5053169;28;20283;-68
2023/08/06 03:14:20;;;;;;;0.83;0.83;;;;;;;25.23;100.00;97952.28;5052871;28;20220;-68
2023/08/06 03:16:47;;;;;;;1.07;1.07;;;;;;;25.33;100.00;97968.59;5052863;28;20575;-67
2023/08/06 03:19:15;;;;;;;1.00;1.00;;;;;;;25.40;100.00;97959.84;5052747;28;20680;-68
2023/08/06 03:21:41;;;;;;;0.87;0.87;;;;;;;25.39;100.00;97960.03;5053025;28;20596;-68
2023/08/06 03:24:08;;;;;;;0.97;0.97;;;;;;;25.36;100.00;97950.72;5052949;28;20677;-68
2023/08/06 03:26:35;;;;;;;1.00;1.00;;;;;;;25.23;100.00;97952.28;5053063;28;20239;-70
2023/08/06 03:29:02;;;;;;;1.07;1.07;;;;;;;25.25;100.00;97955.53;5052279;28;20200;-68
2023/08/06 03:31:28;;;;;;;0.80;0.80;;;;;;;25.29;100.00;97967.31;5052947;28;20204;-68
2023/08/06 03:33:55;;;;;;;1.00;1.00;;;;;;;25.29;100.00;97964.69;5052953;28;20205;-68
2023/08/06 03:36:23;;;;;;;1.00;1.00;;;;;;;25.29;100.00;97964.69;5052364;28;20629;-68
2023/08/06 03:38:50;;;;;;;0.77;0.77;;;;;;;25.29;100.00;97978.63;5052793;28;20208;-68
2023/08/06 03:41:17;;;;;;;0.67;0.67;;;;;;;25.31;100.00;97975.81;5052996;28;20205;-68
2023/08/06 03:43:43;;;;;;;1.27;1.10;;;;;;;25.31;100.00;97965.31;5052176;28;20196;-69
2023/08/06 03:46:10;;;;;;;1.00;1.00;;;;;;;25.24;100.00;97959.13;5052338;28;20203;-68
2023/08/06 03:48:37;;;;;;;0.83;0.83;;;;;;;25.15;100.00;97965.41;5053103;28;20201;-68
2023/08/06 03:51:04;;;;;;;1.13;1.13;;;;;;;25.18;100.00;97965.06;5052319;28;20576;-68
2023/08/06 03:53:32;;;;;;;6.77;0.97;;;;;;;25.17;100.00;97958.22;5051760;28;20196;-69
2023/08/06 03:56:00;;;;;;;1.10;1.10;;;;;;;25.17;100.00;97958.22;5052180;28;20224;-68
2023/08/06 03:58:26;;;;;;;0.60;0.60;;;;;;;25.15;100.00;97960.16;5052285;28;20205;-68
2023/08/06 04:00:59;;;;;;;1.20;1.20;;;;;;;25.19;100.00;97975.41;5052270;28;20287;-68
2023/08/06 04:03:26;;;;;;;0.83;0.83;;;;;;;25.25;100.00;97981.75;5052108;28;20205;-68
2023/08/06 04:05:52;;;;;;;1.87;0.97;;;;;;;25.24;100.00;97977.50;5052352;28;20202;-67
2023/08/06 04:08:19;;;;;;;2.00;1.90;;;;;;;25.29;100.00;97989.13;5051921;28;20200;-68
2023/08/06 04:10:50;;;;;;;1.13;1.03;;;;;;;25.24;100.00;97972.25;5051596;28;20711;-68
2023/08/06 04:13:17;;;;;;;2.33;0.90;;;;;;;25.37;100.00;97973.31;5050525;28;20200;-68
2023/08/06 04:15:44;;;;;;;1.27;1.17;;;;;;;25.38;100.00;97977.56;5051886;28;20243;-69
2023/08/06 04:18:11;;;;;;;1.83;1.73;;;;;;;25.43;100.00;97967.38;5051685;28;20208;-68
2023/08/06 04:20:44;;;;;;;0.97;0.97;;;;;;;25.53;100.00;97982.91;5051941;28;20208;-68
2023/08/06 04:23:11;;;;;;;1.13;1.10;;;;;;;25.48;100.00;97987.84;5051272;28;20315;-68
2023/08/06 04:25:38;;;;;;;1.30;1.20;;;;;;;25.56;100.00;97987.81;5051683;28;20200;-68
2023/08/06 04:28:06;;;;;;;1.50;0.77;;;;;;;25.59;100.00;97997.94;5051482;28;20266;-68
2023/08/06 04:30:32;;;;;;;1.10;1.10;;;;;;;25.66;100.00;97995.44;5052019;28;20193;-68
2023/08/06 04:32:59;;;;;;;4.50;1.27;;;;;;;25.68;100.00;97991.69;5051594;28;20577;-68
2023/08/06 04:35:26;;;;;;;1.80;1.70;;;;;;;25.61;100.00;98006.50;5050336;28;20690;-68
2023/08/06 04:37:53;;;;;;;0.90;0.90;;;;;;;25.51;100.00;98011.97;5051700;28;20270;-68
2023/08/06 04:40:19;;;;;;;1.37;1.27;;;;;;;25.60;100.00;98002.22;5051201;28;20661;-67
2023/08/06 04:42:46;;;;;;;1.40;1.10;;;;;;;25.65;100.00;97994.66;5051566;28;20200;-68
2023/08/06 04:45:14;;;;;;;2.73;1.70;;;;;;;25.69;100.00;97995.91;5051263;28;20193;-68
2023/08/06 04:47:41;;;;;;;2.00;1.90;;;;;;;25.73;100.00;97981.44;5051516;28;20257;-68
2023/08/06 04:50:08;;;;;;;1.60;1.50;;;;;;;25.75;100.00;97974.22;5051104;28;20647;-68
2023/08/06 04:52:36;;;;;;;2.20;2.03;;;;;;;25.66;100.00;97977.88;5051188;28;20280;-68
2023/08/06 04:55:03;;;;;;;3.97;1.43;;;;;;;25.62;100.00;97989.75;5051130;28;20627;-68
2023/08/06 04:57:30;;;;;;;2.97;1.83;;;;;;;25.57;100.00;98000.75;5050451;28;20204;-68
2023/08/06 04:59:57;;;;;;;1.33;1.23;;;;;;;25.55;100.00;97991.44;5051295;28;20203;-68
2023/08/06 05:02:25;;;;;;;1.67;1.57;;;;;;;25.56;100.00;97979.94;5051022;28;20731;-68
2023/08/06 05:04:51;;;;;;;1.70;1.40;;;;;;;25.59;100.00;97974.34;5051139;28;20192;-68
2023/08/06 05:07:18;;;;;;;1.47;1.37;;;;;;;25.65;100.00;97984.16;5050729;28;20592;-67
2023/08/06 05:09:45;;;;;;;2.10;1.77;;;;;;;25.60;100.00;97996.97;5051079;28;20660;-68
2023/08/06 05:12:12;;;;;;;1.70;1.60;;;;;;;25.69;100.00;98001.16;5050909;28;20197;-68
2023/08/06 05:14:38;;;;;;;1.70;1.43;;;;;;;25.75;100.00;97992.59;5050588;28;20220;-68
2023/08/06 05:17:05;;;;;;;1.93;1.67;;;;;;;25.81;100.00;97993.72;5050786;28;20208;-68
2023/08/06 05:19:33;;;;;;;1.60;1.50;;;;;;;25.89;100.00;97989.19;5050742;28;20200;-68
2023/08/06 05:22:00;;;;;;;1.50;1.40;;;;;;;25.95;100.00;97980.59;5050337;28;20240;-68
2023/08/06 05:24:27;;;;;;;1.73;1.50;;;;;;;25.99;100.00;97988.94;5049273;28;20204;-68
2023/08/06 05:26:54;;;;;;;2.20;1.67;;;;;;;26.00;100.00;97996.66;5049860;28;20216;-68
2023/08/06 05:29:21;;;;;;;1.77;1.37;;;;;;;25.97;100.00;97989.16;5047645;28;20208;-68
2023/08/06 05:31:47;;;;;;;2.13;1.67;;;;;;;26.02;100.00;97981.53;5047520;28;20241;-67
2023/08/06 05:34:14;;;;;;;1.43;1.33;;;;;;;25.93;100.00;97985.22;5049940;28;20201;-71
2023/08/06 05:36:42;;;;;;;1.40;1.40;;;;;;;25.72;100.00;97989.53;5050351;28;20228;-68
2023/08/06 05:39:09;;;;;;;1.63;1.53;;;;;;;25.64;100.00;97960.69;5049862;28;20204;-68
2023/08/06 05:41:36;;;;;;;3.13;1.80;;;;;;;25.79;100.00;97986.00;5049979;28;20557;-67
2023/08/06 05:44:02;;;;;;;1.27;1.23;;;;;;;25.75;100.00;97983.91;5051152;28;20211;-68
2023/08/06 05:46:29;;;;;;;3.00;1.77;;;;;;;25.71;100.00;97974.75;5048851;28;20216;-68
2023/08/06 05:48:56;;;;;;;1.97;1.30;;;;;;;25.46;100.00;97974.09;5048437;28;20219;-68
2023/08/06 05:51:23;;;;;;;3.60;1.27;;;;;;;25.19;100.00;97964.09;5050841;28;20204;-69
2023/08/06 05:53:51;;;;;;;1.03;1.03;;;;;;;25.21;100.00;97952.44;5050266;28;20246;-68
2023/08/06 05:56:18;;;;;;;0.73;0.73;;;;;;;25.32;100.00;97946.78;5050780;28;20723;-68
2023/08/06 05:58:46;;;;;;;0.70;0.70;;;;;;;25.39;100.00;97968.72;5050251;28;20204;-67
2023/08/06 06:01:13;;;;;;;1.10;1.00;;;;;;;25.20;100.00;97952.63;5050968;28;20616;-68
2023/08/06 06:03:39;;;;;;;0.80;0.80;;;;;;;25.22;100.00;97955.88;5051002;28;20620;-70
2023/08/06 06:06:06;;;;;;;0.43;0.43;;;;;;;25.04;100.00;97954.31;5050352;28;20211;-68
2023/08/06 06:08:33;;;;;;;0.73;0.73;;;;;;;25.00;100.00;97952.22;5048233;28;20201;-68
2023/08/06 06:11:02;;;;;;;0.70;0.70;;;;;;;24.74;100.00;97915.81;5050342;28;20219;-68
2023/08/06 06:13:28;;;;;;;0.60;0.60;;;;;;;24.99;100.00;97946.16;5049728;28;20196;-68
2023/08/06 06:15:55;;;;;;;0.60;0.60;;;;;;;25.07;100.00;97959.22;5050791;28;20216;-70
2023/08/06 06:18:22;;;;;;;0.50;0.50;;;;;;;25.18;100.00;97965.06;5050757;28;20200;-68
2023/08/06 06:20:49;;;;;;;0.70;0.70;;;;;;;25.29;100.00;97964.69;5048897;28;20196;-66
2023/08/06 06:23:16;;;;;;;2.07;0.63;;;;;;;25.24;100.00;97967.81;5048816;28;20236;-66
2023/08/06 06:25:44;;;;;;;0.70;0.70;;;;;;;25.25;100.00;97960.78;5051428;28;20258;-68
2023/08/06 06:28:12;;;;;;;1.03;0.93;;;;;;;25.23;100.00;97966.19;5051239;28;20690;-68
2023/08/06 06:30:39;;;;;;;0.40;0.40;;;;;;;25.23;100.00;97974.06;5051285;28;20200;-68
2023/08/06 06:33:05;;;;;;;6.80;1.10;;;;;;;25.20;100.00;97966.56;5051170;28;20223;-67
2023/08/06 06:35:32;;;;;;;0.57;0.57;;;;;;;25.32;100.00;97977.44;5050978;28;20684;-68
2023/08/06 06:37:59;;;;;;;1.07;0.83;;;;;;;25.37;100.00;97975.13;5051044;28;20193;-68
2023/08/06 06:40:26;;;;;;;0.50;0.50;;;;;;;25.43;100.00;97979.66;5050822;28;20204;-67
2023/08/06 06:42:53;;;;;;;0.40;0.40;;;;;;;25.39;100.00;97978.41;5050325;28;20200;-69
2023/08/06 06:45:21;;;;;;;0.60;0.60;;;;;;;25.31;100.00;97966.13;5049292;28;20211;-70
2023/08/06 06:47:48;;;;;;;0.43;0.43;;;;;;;25.39;100.00;97976.59;5049467;28;20267;-68
2023/08/06 06:50:14;;;;;;;0.57;0.57;;;;;;;25.39;100.00;97970.53;5048959;28;20557;-70
2023/08/06 06:52:42;;;;;;;0.47;0.47;;;;;;;25.54;100.00;97976.69;5048056;28;20197;-68
2023/08/06 06:55:09;;;;;;;0.57;0.57;;;;;;;25.66;100.00;97974.44;5049318;28;20223;-69
2023/08/06 06:57:36;;;;;;;0.67;0.67;;;;;;;25.65;100.00;97978.91;5049333;28;20213;-70
2023/08/06 07:00:03;;;;;;;0.70;0.70;;;;;;;25.66;100.00;97975.25;5050134;28;20692;-67
2023/08/06 07:02:31;;;;;;;0.70;0.70;;;;;;;25.65;100.00;97978.09;5050295;28;20580;-68
2023/08/06 07:04:57;;;;;;;0.90;0.90;;;;;;;25.67;100.00;97982.16;5049357;28;20204;-68
2023/08/06 07:07:24;;;;;;;1.17;0.70;;;;;;;25.66;100.00;97984.94;5049511;28;20584;-71
2023/08/06 07:09:51;;;;;;;0.60;0.60;;;;;;;25.50;100.00;97985.88;5049102;28;20307;-67
2023/08/06 07:12:18;;;;;;;1.07;1.07;;;;;;;25.33;100.00;97989.59;5049348;28;20620;-67
2023/08/06 07:14:44;;;;;;;3.47;0.90;;;;;;;25.26;100.00;97993.88;5048345;28;20201;-67
2023/08/06 07:17:11;;;;;;;0.90;0.90;;;;;;;25.27;100.00;97995.50;5048383;28;20680;-67
2023/08/06 07:19:39;;;;;;;0.90;0.90;;;;;;;25.20;100.00;98005.91;5047899;28;20204;-67
2023/08/06 07:22:07;;;;;;;1.47;0.80;;;;;;;25.21;100.00;98010.13;5052138;28;20735;-68
2023/08/06 07:24:34;;;;;;;0.77;0.77;;;;;;;25.31;100.00;98007.28;5050162;28;20603;-68
2023/08/06 07:27:01;;;;;;;1.07;1.07;;;;;;;25.35;100.00;98019.09;5051945;28;20203;-68
2023/08/06 07:29:27;;;;;;;0.87;0.87;;;;;;;25.28;100.00;98023.38;5052357;28;20296;-67
2023/08/06 07:31:55;;;;;;;3.60;0.80;;;;;;;25.22;100.00;98024.06;5052195;28;20196;-68
2023/08/06 07:34:22;;;;;;;0.40;0.40;;;;;;;25.24;100.00;98022.06;5052011;28;20703;-68
2023/08/06 07:36:50;;;;;;;0.50;0.50;;;;;;;25.25;100.00;98024.53;5052289;28;20224;-68
2023/08/06 07:39:17;;;;;;;1.43;1.00;;;;;;;25.36;100.00;98021.53;5051688;28;20196;-68
2023/08/06 07:41:45;;;;;;;0.70;0.70;;;;;;;25.42;100.00;98010.34;5051967;28;20232;-68
2023/08/06 07:44:12;;;;;;;1.20;0.90;;;;;;;25.53;100.00;98006.53;5051859;28;20296;-68
2023/08/06 07:46:39;;;;;;;0.87;0.87;;;;;;;25.47;100.00;97989.66;5052221;28;20308;-68
2023/08/06 07:49:06;;;;;;;1.03;1.03;;;;;;;25.53;100.00;97996.03;5050268;28;20236;-68
2023/08/06 07:51:33;;;;;;;1.03;1.03;;;;;;;25.60;100.00;97991.72;5047801;28;20201;-67
2023/08/06 07:54:01;;;;;;;0.83;0.83;;;;;;;25.68;100.00;97989.06;5051311;28;20696;-68
2023/08/06 07:56:28;;;;;;;1.20;1.20;;;;;;;25.85;100.00;98001.03;5052022;28;20240;-68
2023/08/06 07:58:55;;;;;;;1.17;1.13;;;;;;;25.88;100.00;98005.94;5048482;28;20672;-68
2023/08/06 08:01:22;;;;;;;0.60;0.60;;;;;;;25.90;100.00;98006.59;5050133;28;20212;-68
2023/08/06 08:03:49;;;;;;;1.50;1.40;;;;;;;25.93;100.00;98015.91;5048725;28;20204;-68
2023/08/06 08:06:16;;;;;;;1.37;1.27;;;;;;;25.88;100.00;98011.19;5051415;28;20656;-68
2023/08/06 08:08:43;;;;;;;2.03;1.53;;;;;;;25.92;100.00;98017.72;5051779;28;20587;-68
2023/08/06 08:11:11;;;;;;;1.10;1.10;;;;;;;26.00;100.00;98017.69;5050006;28;20201;-68
2023/08/06 08:13:38;;;;;;;6.37;1.13;;;;;;;26.12;100.00;98007.53;5050891;28;20197;-68
2023/08/06 08:16:05;;;;;;;1.97;1.40;;;;;;;26.19;100.00;98002.44;5051198;28;20282;-68
2023/08/06 08:18:32;;;;;;;1.47;1.40;;;;;;;26.26;100.00;98008.59;5051762;28;20684;-68
2023/08/06 08:20:59;;;;;;;1.37;1.27;;;;;;;26.28;100.00;98001.34;5049935;28;20205;-68
2023/08/06 08:23:25;;;;;;;1.63;1.47;;;;;;;26.40;100.00;98013.88;5051356;28;20976;-68
2023/08/06 08:25:52;;;;;;;2.23;1.97;;;;;;;26.38;100.00;98001.91;5051251;28;20207;-68
2023/08/06 08:28:20;;;;;;;1.37;1.27;;;;;;;26.37;100.00;97992.38;5050859;28;20299;-68
2023/08/06 08:30:47;;;;;;;1.87;1.73;;;;;;;26.43;100.00;98010.09;5050856;28;20197;-68
2023/08/06 08:33:14;;;;;;;1.50;1.40;;;;;;;26.34;100.00;98011.16;5049658;28;20208;-68
2023/08/06 08:35:41;;;;;;;1.90;1.80;;;;;;;26.31;100.00;98014.13;5050703;28;20270;-68
2023/08/06 08:38:08;;;;;;;2.20;1.77;;;;;;;26.29;100.00;98011.69;5049771;28;20651;-68
2023/08/06 08:40:43;;;;;;;1.10;1.10;;;;;;;26.26;100.00;98016.50;5050303;28;20616;-68
2023/08/06 08:43:10;;;;;;;1.10;0.97;;;;;;;26.16;100.00;98000.13;5050865;28;20215;-66
2023/08/06 08:45:41;;;;;;;0.63;0.60;;;;;;;26.00;100.00;98011.59;5050865;28;20200;-68
2023/08/06 08:48:08;;;;;;;1.80;1.40;;;;;;;25.98;100.00;98005.69;5051076;28;20301;-68
2023/08/06 08:50:35;;;;;;;0.90;0.90;;;;;;;25.86;100.00;98013.19;5051032;28;20197;-68
2023/08/06 08:53:02;;;;;;;1.27;0.80;;;;;;;25.91;100.00;98000.31;5049958;28;20197;-68
2023/08/06 08:55:29;;;;;;;1.33;1.03;;;;;;;26.01;100.00;98008.78;5050527;28;20204;-68
2023/08/06 08:57:55;;;;;;;1.23;0.90;;;;;;;26.17;100.00;98002.63;5051200;28;20205;-68
2023/08/06 09:00:22;;;;;;;0.50;0.50;;;;;;;26.29;100.00;98003.00;5050417;28;20684;-68
2023/08/06 09:02:51;;;;;;;0.60;0.60;;;;;;;26.54;100.00;98002.56;5051011;28;20258;-68
2023/08/06 09:05:21;;;;;;;0.60;0.60;;;;;;;26.87;100.00;97992.53;5050447;28;20204;-68
2023/08/06 09:07:50;;;;;;;0.80;0.80;;;;;;;27.17;100.00;97987.22;5050853;28;20205;-68
2023/08/06 09:10:18;;;;;;;0.53;0.53;;;;;;;27.53;100.00;97982.75;5050542;28;20204;-68
2023/08/06 09:12:47;;;;;;;0.50;0.50;;;;;;;27.73;97.38;97975.88;5051313;28;20200;-68
2023/08/06 09:15:14;;;;;;;0.50;0.50;;;;;;;27.95;96.73;97977.47;5050118;28;20192;-68
2023/08/06 09:17:41;;;;;;;1.03;0.60;;;;;;;28.24;96.99;97970.44;5051191;28;20235;-68
2023/08/06 09:20:14;;;;;;;0.57;0.57;;;;;;;28.53;93.04;97975.50;5050339;28;20208;-68
2023/08/06 09:22:41;;;;;;;0.47;0.43;;;;;;;28.79;94.54;97974.84;5050451;28;20221;-68
2023/08/06 09:25:09;;;;;;;0.57;0.57;;;;;;;28.94;87.14;97968.41;5050293;28;20200;-68
2023/08/06 09:27:37;;;;;;;0.35;0.35;;;;;;;29.15;84.27;97960.34;5050487;28;20200;-68
2023/08/06 09:30:04;;;;;;;0.73;0.73;;;;;;;29.13;79.54;97965.03;5049070;28;20266;-68
2023/08/06 09:32:46;;;;;;;0.52;0.47;;;;;;;29.13;80.87;97970.31;5049503;28;20295;-68
2023/08/06 09:35:18;;;;;;;0.53;0.53;;;;;;;29.16;78.14;97977.81;5050688;28;20825;-68
2023/08/06 09:37:45;;;;;;;0.77;0.50;;;;;;;29.12;72.94;97981.03;5050083;28;20680;-67
2023/08/06 09:40:28;;;;;;;0.73;0.68;;;;;;;29.13;77.00;97987.97;5049985;28;20200;-68
2023/08/06 09:42:55;;;;;;;0.20;0.20;;;;;;;29.13;78.64;97983.50;5050275;28;20199;-67
2023/08/06 09:45:22;;;;;;;0.85;0.85;;;;;;;29.12;79.67;97981.88;5050112;28;20216;-67
2023/08/06 09:47:50;;;;;;;0.50;0.50;;;;;;;29.01;79.71;97963.16;5050499;28;20220;-67
2023/08/06 09:50:19;;;;;;;0.83;0.67;;;;;;;29.12;80.03;97981.03;5049935;28;20283;-67
2023/08/06 09:52:47;;;;;;;0.95;0.95;;;;;;;29.30;80.37;97969.97;5050417;28;20200;-68
2023/08/06 09:55:15;;;;;;;0.75;0.70;;;;;;;29.47;80.38;97964.09;5050046;28;20209;-69
2023/08/06 09:57:43;;;;;;;0.77;0.77;;;;;;;29.72;77.99;97961.72;5049572;28;20700;-68
2023/08/06 10:00:11;;;;;;;0.70;0.70;;;;;;;29.92;76.24;97967.84;5049611;28;20212;-67
2023/08/06 10:02:39;;;;;;;0.88;0.88;;;;;;;30.15;78.78;97957.66;5049580;28;20207;-68
2023/08/06 10:05:06;;;;;;;0.75;0.75;;;;;;;30.34;76.55;97955.22;5049956;28;20227;-68
2023/08/06 10:07:35;;;;;;;0.90;0.90;;;;;;;30.45;74.26;97967.81;5050259;28;20198;-68
2023/08/06 10:10:03;;;;;;;0.75;0.75;;;;;;;30.61;73.22;97962.06;5049074;28;20691;-68
2023/08/06 10:12:35;;;;;;;0.65;0.65;;;;;;;30.79;69.77;97953.47;5050095;28;20228;-69
2023/08/06 10:15:07;;;;;;;0.60;0.60;;;;;;;31.00;70.54;97951.38;5049961;28;20207;-68
2023/08/06 10:17:36;;;;;;;1.58;0.82;;;;;;;31.06;64.43;97947.88;5046935;28;20212;-68
2023/08/06 10:20:06;;;;;;;0.98;0.60;;;;;;;30.97;67.60;97925.31;5049508;28;20258;-69
2023/08/06 10:22:35;;;;;;;0.75;0.75;;;;;;;31.10;63.67;97941.16;5046557;28;20239;-68
2023/08/06 10:25:04;;;;;;;0.80;0.80;;;;;;;31.18;65.57;97926.84;5049995;28;20197;-68
2023/08/06 10:27:33;;;;;;;0.80;0.75;;;;;;;31.30;66.47;97919.03;5046430;28;20200;-69
2023/08/06 10:30:24;;;;;;;1.05;1.00;;;;;;;31.57;66.46;97920.47;5048301;28;20204;-69
2023/08/06 10:32:52;;;;;;;0.88;0.88;;;;;;;31.75;64.09;97923.22;5039072;28;20205;-69
2023/08/06 10:35:33;;;;;;;0.70;0.70;;;;;;;31.76;61.62;97922.19;5047957;28;20216;-68
2023/08/06 10:38:11;;;;;;;0.70;0.70;;;;;;;31.80;60.21;97923.38;5044857;28;20220;-72
2023/08/06 10:40:41;;;;;;;0.77;0.60;;;;;;;31.71;60.80;97928.13;5045423;28;20619;-70
2023/08/06 10:43:10;;;;;;;0.70;0.70;;;;;;;31.68;59.79;97927.75;5045926;28;20569;-68
2023/08/06 10:45:38;;;;;;;0.65;0.65;;;;;;;31.52;58.66;97928.28;5048726;28;20236;-68
2023/08/06 10:48:05;;;;;;;0.50;0.50;;;;;;;31.54;58.56;97931.50;5045245;28;20216;-69
2023/08/06 10:50:33;;;;;;;0.50;0.50;;;;;;;31.47;59.47;97936.03;5042915;28;20205;-68
2023/08/06 10:53:05;;;;;;;0.82;0.82;;;;;;;31.31;56.35;97952.44;5048717;28;20627;-68
2023/08/06 10:55:34;;;;;;;0.60;0.60;;;;;;;31.19;57.81;97939.88;5047128;28;20612;-68
2023/08/06 10:58:00;;;;;;;0.90;0.60;;;;;;;31.36;61.39;97952.59;5052938;28;20269;-68
2023/08/06 11:00:27;;;;;;;0.98;0.98;;;;;;;31.66;60.79;97953.66;5052849;28;20211;-68
2023/08/06 11:02:55;;;;;;;0.90;0.90;;;;;;;31.84;57.53;97952.91;5052326;28;20216;-68
2023/08/06 11:05:22;;;;;;;0.80;0.80;;;;;;;31.94;53.71;97947.94;5052052;28;21676;-68
2023/08/06 11:07:51;;;;;;;0.60;0.60;;;;;;;32.08;55.56;97950.28;5052872;28;20205;-68
2023/08/06 11:10:17;;;;;;;0.45;0.45;;;;;;;32.13;52.94;97953.09;5051520;28;20200;-74
2023/08/06 11:12:46;;;;;;;0.68;0.68;;;;;;;32.20;55.07;97948.53;5048029;28;20680;-68
2023/08/06 11:15:13;;;;;;;1.02;1.02;;;;;;;32.27;51.14;97956.44;5052626;28;20204;-68
2023/08/06 11:17:42;;;;;;;0.60;0.60;;;;;;;32.23;51.42;97964.00;5052769;28;20235;-72
2023/08/06 11:20:10;;;;;;;0.60;0.60;;;;;;;32.23;50.96;97963.19;5052637;28;20220;-68
2023/08/06 11:22:38;;;;;;;0.50;0.50;;;;;;;32.28;51.95;97941.31;5051083;28;20220;-69
2023/08/06 11:25:07;;;;;;;0.60;0.60;;;;;;;32.39;50.43;97952.00;5049774;28;20228;-68
2023/08/06 11:27:34;;;;;;;0.32;0.32;;;;;;;32.50;50.90;97961.91;5051467;28;20684;-68
2023/08/06 11:30:02;;;;;;;1.55;0.65;;;;;;;32.60;50.52;97972.03;5052160;28;20645;-68